KHAF Airport Information

Runway Information
Runway 12 Length 5000 ft width 150 ft
Elevation 59 ft Threshold 763 ft Heading 137
Runway 30 Length 5000 ft Width 150 ft
Elevation 36 ft Threshold 763 ft Heading 317
Airport Frequencies
Type A/D Name NORCAL APP Frequency 135.1 MHZ
Type UNIC Name CTAF/UNICO Frequency 122.8 MHZ
Airport Navaids
Airport Weather Information & NOTAM
ADDS - METARS form results

(0839 UTC 15 November 2018)
Data provider http://aviationweather.gov/metar/data/
 
METAR text: KHAF 150835Z AUTO 01003KT 3SM HZ SCT019 OVC031 06/M03 A3021 RMK AO2
Conditions at: KHAF (HALF MOON BAY , CA, US) observed 0835 UTC 15 November 2018
Temperature: 6.0°C (43°F)
Dewpoint: -3.0°C (27°F) [RH = 52%]
Pressure (altimeter): 30.21 inches Hg (1023.1 mb)
Winds: from the N (10 degrees) at 3 MPH (3 knots; 1.5 m/s)
Visibility: 3 miles ( 5 km)
Ceiling: 3100 feet AGL
Clouds: scattered clouds at 1900 feet AGL
overcast cloud deck at 3100 feet AGL
Weather: HZ  (haze)

METAR text: KHAF 150820Z AUTO 00000KT 3SM HZ FEW003 BKN019 OVC031 05/M03 A3021 RMK AO2
Conditions at: KHAF (HALF MOON BAY , CA, US) observed 0820 UTC 15 November 2018
Temperature: 5.0°C (41°F)
Dewpoint: -3.0°C (27°F) [RH = 56%]
Pressure (altimeter): 30.21 inches Hg (1023.1 mb)
Winds: calm
Visibility: 3 miles ( 5 km)
Ceiling: 1900 feet AGL
Clouds: few clouds at 300 feet AGL
broken clouds at 1900 feet AGL
overcast cloud deck at 3100 feet AGL
Weather: HZ  (haze)

METAR text: KHAF 150815Z AUTO 04003KT 3SM HZ FEW003 BKN019 OVC031 04/M03 A3021 RMK AO2
Conditions at: KHAF (HALF MOON BAY , CA, US) observed 0815 UTC 15 November 2018
Temperature: 4.0°C (39°F)
Dewpoint: -3.0°C (27°F) [RH = 60%]
Pressure (altimeter): 30.21 inches Hg (1023.1 mb)
Winds: from the NE (40 degrees) at 3 MPH (3 knots; 1.5 m/s)
Visibility: 3 miles ( 5 km)
Ceiling: 1900 feet AGL
Clouds: few clouds at 300 feet AGL
broken clouds at 1900 feet AGL
overcast cloud deck at 3100 feet AGL
Weather: HZ  (haze)

METAR text: KHAF 150800Z AUTO 00000KT 3SM HZ BKN021 BKN030 OVC038 06/M02 A3021 RMK AO2
Conditions at: KHAF (HALF MOON BAY , CA, US) observed 0800 UTC 15 November 2018
Temperature: 6.0°C (43°F)
Dewpoint: -2.0°C (28°F) [RH = 56%]
Pressure (altimeter): 30.21 inches Hg (1023.1 mb)
Winds: calm
Visibility: 3 miles ( 5 km)
Ceiling: 2100 feet AGL
Clouds: broken clouds at 2100 feet AGL
broken clouds at 3000 feet AGL
overcast cloud deck at 3800 feet AGL
Weather: HZ  (haze)

METAR text: KHAF 150755Z AUTO 00000KT 3SM HZ BKN021 BKN034 OVC042 05/M02 A3021 RMK AO2
Conditions at: KHAF (HALF MOON BAY , CA, US) observed 0755 UTC 15 November 2018
Temperature: 5.0°C (41°F)
Dewpoint: -2.0°C (28°F) [RH = 60%]
Pressure (altimeter): 30.21 inches Hg (1023.1 mb)
Winds: calm
Visibility: 3 miles ( 5 km)
Ceiling: 2100 feet AGL
Clouds: broken clouds at 2100 feet AGL
broken clouds at 3400 feet AGL
overcast cloud deck at 4200 feet AGL
Weather: HZ  (haze)

METAR text: KHAF 150740Z AUTO 00000KT 3SM HZ BKN021 OVC042 07/M03 A3021 RMK AO2
Conditions at: KHAF (HALF MOON BAY , CA, US) observed 0740 UTC 15 November 2018
Temperature: 7.0°C (45°F)
Dewpoint: -3.0°C (27°F) [RH = 49%]
Pressure (altimeter): 30.21 inches Hg (1023.1 mb)
Winds: calm
Visibility: 3 miles ( 5 km)
Ceiling: 2100 feet AGL
Clouds: broken clouds at 2100 feet AGL
overcast cloud deck at 4200 feet AGL
Weather: HZ  (haze)